Gale, Illinois
Current Conditions -  °F | °C
As of 6:53 AM on Friday 19 Dec 2014 (Local Time) from KCGI Reporting Station
Overcast Overcast  
Wind Chill: 28°   Ceiling: 3600
Heat Index: 33°   Visibility: 8mi
Dew Point: 30°   Wind: 6mph
Humidity: 89%   Direction: 50°NE
Pressure: 30.3"   Gusts: NA
Location:  37.1947°N, 89.3961°W
Report Text: KCGI 191253Z AUTO 05005KT 8SM OVC036 01/M01 A3030 RMK AO2 SLP262 T00061011 TSNO
Loading
Personal Weather Stations






























Interactive Weather Map New forecast layout! Learn more

10-Day Weather Forecast

Advertisements
Track Severe Weather on mobile